Time;durP1;ratioP1;P1;durP2;ratioP2;P2;SDS_P1;SDS_P2;PMS_P1;PMS_P2;Temp;Humidity;BMP_temperature;BMP_pressure;BME280_temperature;BME280_humidity;BME280_pressure;Samples;Min_cycle;Max_cycle;Signal;HPM_P1;HPM_P2
2024/01/09 05:02:48;;;;;;;6.75;3.50;;;;;;;4.04;56.50;101572.56;5606879;31;85784;-54
2024/01/09 05:05:51;;;;;;;6.32;2.97;;;;;;;4.04;56.50;101572.56;5583894;31;34150;-54
2024/01/09 05:08:53;;;;;;;8.50;3.17;;;;;;;3.84;69.57;101580.56;5586293;31;33819;-54
2024/01/09 05:11:56;;;;;;;4.70;2.80;;;;;;;3.87;39.76;101574.84;5591160;31;34330;-54
2024/01/09 05:14:58;;;;;;;5.50;3.40;;;;;;;3.62;38.25;101578.16;5602507;31;34314;-54
2024/01/09 05:18:01;;;;;;;5.62;3.10;;;;;;;3.93;44.72;101588.09;5603561;31;34254;-54
2024/01/09 05:21:04;;;;;;;5.37;2.75;;;;;;;3.74;39.21;101594.25;5602674;31;33647;-54
2024/01/09 05:24:07;;;;;;;6.68;3.12;;;;;;;3.88;53.29;101603.03;5603529;31;33715;-56
2024/01/09 05:27:09;;;;;;;6.20;2.92;;;;;;;3.95;55.70;101609.97;5603494;31;34318;-57
2024/01/09 05:30:13;;;;;;;5.75;3.10;;;;;;;4.27;67.44;101622.53;5603410;31;33776;-56
2024/01/09 05:33:15;;;;;;;5.37;3.40;;;;;;;4.52;69.64;101623.50;5602394;31;33577;-55
2024/01/09 05:36:22;;;;;;;5.20;2.85;;;;;;;3.81;37.06;101610.16;5603304;31;34230;-55
2024/01/09 05:39:24;;;;;;;5.45;2.90;;;;;;;3.27;35.55;101627.88;5598711;31;33882;-56
2024/01/09 05:42:28;;;;;;;6.05;3.15;;;;;;;3.11;35.45;101620.28;5601545;31;32964;-60
2024/01/09 05:45:30;;;;;;;4.65;2.70;;;;;;;3.15;34.54;101630.31;5595850;31;33888;-56
2024/01/09 05:48:33;;;;;;;8.40;4.60;;;;;;;3.50;63.55;101640.75;5583432;32;33668;-56
2024/01/09 05:51:35;;;;;;;5.85;3.42;;;;;;;3.66;48.82;101639.56;5581910;31;31512;-56
2024/01/09 05:54:38;;;;;;;5.10;2.95;;;;;;;3.80;57.96;101632.41;5582136;31;33528;-56
2024/01/09 05:57:40;;;;;;;7.32;3.42;;;;;;;3.96;46.98;101639.94;5580829;32;33921;-56
2024/01/09 06:00:43;;;;;;;8.68;2.95;;;;;;;4.11;65.86;101648.53;5564211;32;33576;-56
2024/01/09 06:03:45;;;;;;;6.45;3.08;;;;;;;4.11;50.03;101655.66;5568247;32;33682;-56
2024/01/09 06:06:47;;;;;;;6.07;2.87;;;;;;;4.06;46.28;101658.13;5577856;31;33047;-56
2024/01/09 06:09:50;;;;;;;7.87;3.50;;;;;;;3.91;39.76;101653.84;5573947;32;33802;-56
2024/01/09 06:12:52;;;;;;;7.03;3.35;;;;;;;3.94;37.62;101658.75;5560248;31;33688;-56
2024/01/09 06:15:55;;;;;;;6.15;3.80;;;;;;;3.66;46.04;101666.88;5565142;32;33624;-56
2024/01/09 06:18:57;;;;;;;5.43;3.05;;;;;;;3.67;34.34;101680.94;5565154;32;33758;-56
2024/01/09 06:22:00;;;;;;;6.53;2.97;;;;;;;3.98;43.66;101678.53;5564349;32;34091;-56
2024/01/09 06:25:02;;;;;;;5.37;2.97;;;;;;;4.00;46.75;101684.44;5566961;32;34406;-56
2024/01/09 06:28:05;;;;;;;5.50;3.20;;;;;;;4.30;64.00;101699.13;5566067;32;35170;-56
2024/01/09 06:31:11;;;;;;;6.10;3.20;;;;;;;3.99;50.55;101692.62;5568567;32;33088;-56
2024/01/09 06:34:14;;;;;;;5.87;3.22;;;;;;;4.10;62.60;101699.13;5563143;32;33659;-55
2024/01/09 06:37:16;;;;;;;8.48;3.47;;;;;;;3.88;41.24;101701.19;5550131;32;33511;-55
2024/01/09 06:40:20;;;;;;;6.40;3.15;;;;;;;4.08;41.06;101709.97;5563562;32;33680;-55
2024/01/09 06:43:23;;;;;;;7.05;3.20;;;;;;;4.04;45.53;101714.06;5569196;32;33693;-54
2024/01/09 06:46:27;;;;;;;6.47;3.42;;;;;;;4.05;46.91;101710.38;5559194;32;33358;-54
2024/01/09 06:49:30;;;;;;;8.43;3.37;;;;;;;4.07;36.45;101715.47;5560935;32;33678;-53
2024/01/09 06:52:32;;;;;;;8.32;3.65;;;;;;;4.26;55.85;101727.91;5563725;32;33574;-55
2024/01/09 06:55:35;;;;;;;8.35;3.67;;;;;;;4.35;53.96;101731.19;5558104;32;33721;-54
2024/01/09 06:58:37;;;;;;;7.37;3.17;;;;;;;4.21;52.11;101736.50;5564156;32;34380;-55
2024/01/09 07:01:39;;;;;;;6.35;3.53;;;;;;;4.13;50.14;101734.03;5564904;32;33816;-56
2024/01/09 07:04:42;;;;;;;6.95;3.30;;;;;;;3.67;33.67;101745.41;5557232;32;33670;-55
2024/01/09 07:07:45;;;;;;;5.93;3.17;;;;;;;4.03;41.37;101748.75;5553323;32;33652;-54
2024/01/09 07:10:52;;;;;;;7.00;2.65;;;;;;;4.14;46.58;101748.13;5565931;32;34373;-55
2024/01/09 07:13:54;;;;;;;7.57;4.28;;;;;;;4.03;57.54;101760.16;5565341;32;34458;-55
2024/01/09 07:16:57;;;;;;;7.78;3.22;;;;;;;4.37;60.72;101767.12;5560466;32;34443;-55
2024/01/09 07:20:04;;;;;;;6.95;3.17;;;;;;;4.33;43.90;101762.44;5559533;32;33677;-55
2024/01/09 07:23:06;;;;;;;6.65;3.37;;;;;;;4.18;46.28;101773.25;5564758;32;34407;-55
2024/01/09 07:26:21;;;;;;;5.68;3.17;;;;;;;4.41;56.79;101778.97;5560879;32;34451;-55
2024/01/09 07:29:24;;;;;;;16.95;4.22;;;;;;;4.42;46.37;101777.94;5550846;32;33714;-55
2024/01/09 07:32:26;;;;;;;7.15;3.10;;;;;;;3.93;39.60;101787.09;5556363;32;33730;-56
2024/01/09 07:35:34;;;;;;;7.10;3.67;;;;;;;3.73;37.60;101787.03;5558045;32;34338;-55
2024/01/09 07:38:36;;;;;;;7.20;3.42;;;;;;;3.74;36.80;101794.00;5556056;32;33664;-55
2024/01/09 07:41:40;;;;;;;6.85;3.85;;;;;;;3.84;42.15;101798.09;5563175;32;34400;-56
2024/01/09 07:44:42;;;;;;;7.87;3.42;;;;;;;3.95;38.43;101808.94;5559182;32;33094;-56
2024/01/09 07:47:45;;;;;;;7.05;3.58;;;;;;;4.21;38.18;101810.81;5553251;32;33712;-56
2024/01/09 07:50:48;;;;;;;7.25;3.33;;;;;;;3.87;34.42;101808.31;5563470;32;34421;-55
2024/01/09 07:53:51;;;;;;;6.55;2.70;;;;;;;4.17;45.42;101819.38;5559080;32;33549;-55
2024/01/09 07:56:53;;;;;;;7.22;3.67;;;;;;;4.28;65.48;101824.09;5558710;32;33639;-58
2024/01/09 07:59:56;;;;;;;7.82;3.65;;;;;;;4.04;37.12;101822.84;5566372;32;33529;-56
2024/01/09 08:02:59;;;;;;;8.68;3.97;;;;;;;3.92;35.67;101821.78;5559532;32;33967;-55
2024/01/09 08:06:01;;;;;;;6.57;3.60;;;;;;;3.73;37.98;101826.03;5557756;32;33497;-56
2024/01/09 08:09:05;;;;;;;7.82;4.00;;;;;;;3.99;37.23;101833.25;5553707;32;34170;-56
2024/01/09 08:12:08;;;;;;;8.38;3.75;;;;;;;4.27;42.81;101832.25;5559013;32;33658;-55
2024/01/09 08:15:11;;;;;;;6.75;3.67;;;;;;;4.30;55.28;101834.50;5566587;32;34068;-55
2024/01/09 08:18:13;;;;;;;6.35;3.30;;;;;;;3.90;34.37;101842.41;5566794;32;33690;-55
2024/01/09 08:21:16;;;;;;;8.00;3.60;;;;;;;4.06;50.16;101839.38;5567763;32;34279;-55
2024/01/09 08:24:19;;;;;;;7.30;3.90;;;;;;;3.81;45.68;101841.78;5562720;32;33704;-55
2024/01/09 08:27:21;;;;;;;7.30;3.70;;;;;;;4.56;62.00;101847.81;5560961;32;34350;-57
2024/01/09 08:30:24;;;;;;;8.18;3.53;;;;;;;4.86;83.29;101840.22;5564831;32;33551;-55
2024/01/09 08:33:28;;;;;;;8.95;3.45;;;;;;;4.58;39.52;101852.94;5567062;32;34313;-55
2024/01/09 08:36:34;;;;;;;5.15;3.20;;;;;;;4.19;44.87;101857.97;5566549;32;33524;-56
2024/01/09 08:39:36;;;;;;;9.15;3.87;;;;;;;4.31;50.10;101855.56;5568841;32;33742;-57
2024/01/09 08:42:38;;;;;;;7.72;3.62;;;;;;;4.56;36.40;101868.25;5555834;32;33522;-55
2024/01/09 08:45:40;;;;;;;8.23;4.93;;;;;;;4.71;38.96;101863.56;5561200;32;33554;-56
2024/01/09 08:48:43;;;;;;;11.82;4.30;;;;;;;4.97;47.19;101869.84;5564076;32;33530;-56
2024/01/09 08:51:46;;;;;;;6.87;3.62;;;;;;;5.04;48.08;101876.81;5552769;32;34227;-55
2024/01/09 08:54:48;;;;;;;7.05;3.53;;;;;;;5.34;83.20;101885.16;5555901;32;34347;-55
2024/01/09 08:57:50;;;;;;;7.47;3.70;;;;;;;4.99;36.73;101873.94;5554824;32;33670;-55
2024/01/09 09:00:53;;;;;;;9.82;3.95;;;;;;;4.71;48.25;101882.16;5566522;32;33684;-56
2024/01/09 09:03:56;;;;;;;6.68;3.92;;;;;;;4.84;54.58;101889.31;5552596;32;33691;-55
2024/01/09 09:06:58;;;;;;;8.23;4.28;;;;;;;4.68;37.28;101899.31;5558844;32;33552;-55
2024/01/09 09:10:01;;;;;;;6.85;3.80;;;;;;;4.43;38.27;101895.59;5562362;32;33824;-55
2024/01/09 09:13:04;;;;;;;8.23;4.25;;;;;;;4.20;33.54;101902.06;5562402;32;34272;-56
2024/01/09 09:16:07;;;;;;;8.50;4.03;;;;;;;4.55;50.33;101896.62;5560112;32;33652;-57
2024/01/09 09:19:10;;;;;;;7.50;3.65;;;;;;;4.59;40.55;101903.16;5564598;32;34449;-56
2024/01/09 09:22:13;;;;;;;6.45;3.90;;;;;;;4.84;55.65;101902.59;5565126;32;33924;-56
2024/01/09 09:25:16;;;;;;;23.20;3.72;;;;;;;4.71;45.11;101906.88;5550188;32;33315;-55
2024/01/09 09:28:18;;;;;;;7.12;3.67;;;;;;;4.96;42.18;101914.22;5567922;32;33673;-55
2024/01/09 09:31:21;;;;;;;8.73;4.07;;;;;;;5.03;68.95;101906.25;5561138;32;34401;-55
2024/01/09 09:34:23;;;;;;;9.05;3.95;;;;;;;5.16;53.04;101914.22;5549063;32;34404;-55
2024/01/09 09:37:26;;;;;;;10.30;3.97;;;;;;;5.21;38.96;101902.97;5553213;32;33685;-56
2024/01/09 09:40:28;;;;;;;7.87;3.78;;;;;;;4.99;53.14;101908.50;5558518;32;33564;-55
2024/01/09 09:43:33;;;;;;;7.12;4.03;;;;;;;5.11;53.78;101906.03;5557518;32;33787;-56
2024/01/09 09:46:39;;;;;;;7.97;4.28;;;;;;;5.41;57.48;101907.22;5549262;32;34408;-56
2024/01/09 09:49:42;;;;;;;13.82;3.80;;;;;;;5.34;38.68;101906.41;5569009;32;35194;-56
2024/01/09 09:52:45;;;;;;;7.70;4.00;;;;;;;5.35;46.32;101899.25;5559947;32;34306;-55
2024/01/09 09:55:51;;;;;;;6.40;3.72;;;;;;;5.07;40.17;101910.16;5561339;32;33015;-56
2024/01/09 09:58:54;;;;;;;;;;;;;;;5.33;52.41;101893.31;5567712;32;33735;-55
2024/01/09 10:01:59;;;;;;;7.78;3.67;;;;;;;5.46;49.76;101903.91;5556141;32;33574;-56
2024/01/09 10:05:18;;;;;;;12.05;4.45;;;;;;;5.36;41.14;101899.06;5558085;32;33798;-59
2024/01/09 10:08:24;;;;;;;11.23;3.60;;;;;;;5.32;58.15;101900.47;5561529;32;33692;-60
2024/01/09 10:11:28;;;;;;;5.60;3.50;;;;;;;5.19;44.84;101898.66;5565845;32;34270;-60
2024/01/09 10:14:30;;;;;;;7.20;3.62;;;;;;;5.36;55.98;101903.53;5550585;32;34426;-60
2024/01/09 10:17:34;;;;;;;7.72;3.90;;;;;;;5.21;35.15;101897.66;5555089;32;33245;-60
2024/01/09 10:20:37;;;;;;;7.05;3.87;;;;;;;5.35;45.31;101902.72;5560393;32;34387;-59
2024/01/09 10:23:40;;;;;;;6.30;3.33;;;;;;;5.40;39.97;101910.09;5564642;32;33333;-59
2024/01/09 10:26:43;;;;;;;7.35;3.30;;;;;;;5.45;39.38;101912.94;5559154;32;33408;-59
2024/01/09 10:29:46;;;;;;;7.60;3.97;;;;;;;5.44;65.37;101913.97;5563442;32;33642;-60
2024/01/09 10:32:50;;;;;;;6.12;3.62;;;;;;;5.33;42.46;101909.28;5567973;32;33670;-60
2024/01/09 10:35:54;;;;;;;8.20;3.92;;;;;;;5.36;40.40;101912.34;5564099;32;33726;-60
2024/01/09 10:39:06;;;;;;;7.55;3.80;;;;;;;5.27;41.62;101915.44;5560449;32;33708;-59
2024/01/09 10:42:09;;;;;;;6.68;3.12;;;;;;;5.29;47.64;101916.03;5552916;32;33488;-59
2024/01/09 10:45:12;;;;;;;6.43;3.40;;;;;;;5.42;56.70;101908.84;5563535;31;34439;-60
2024/01/09 10:48:16;;;;;;;6.12;3.10;;;;;;;5.32;41.15;101918.28;5562818;32;33570;-60
2024/01/09 10:51:18;;;;;;;5.97;3.62;;;;;;;5.33;61.81;101919.91;5561820;32;34360;-60
2024/01/09 10:54:21;;;;;;;5.72;3.20;;;;;;;5.41;54.25;101915.19;5559514;32;34346;-60
2024/01/09 10:57:25;;;;;;;6.85;3.55;;;;;;;5.65;58.49;101927.00;5562979;32;33634;-60
2024/01/09 11:00:30;;;;;;;5.80;3.17;;;;;;;5.59;46.53;101927.81;5560228;32;33651;-60
2024/01/09 11:03:32;;;;;;;4.90;3.25;;;;;;;5.55;37.98;101923.94;5554864;32;34052;-59
2024/01/09 11:06:36;;;;;;;7.40;3.35;;;;;;;5.37;49.04;101923.81;5563770;32;33672;-60
2024/01/09 11:09:45;;;;;;;5.70;3.30;;;;;;;5.50;55.05;101930.94;5567763;32;33766;-60
2024/01/09 11:12:51;;;;;;;7.55;3.65;;;;;;;5.63;34.70;101931.72;5567906;32;34322;-60
2024/01/09 11:15:55;;;;;;;7.12;3.72;;;;;;;5.81;49.37;101931.03;5567296;32;34527;-57
2024/01/09 11:18:59;;;;;;;7.80;3.50;;;;;;;5.91;37.84;101933.25;5565518;32;34293;-57
2024/01/09 11:22:15;;;;;;;5.53;3.15;;;;;;;5.73;44.74;101927.78;5564471;32;33903;-57
2024/01/09 11:25:22;;;;;;;7.47;3.70;;;;;;;5.85;53.89;101932.25;5559614;32;33804;-57
2024/01/09 11:28:37;;;;;;;5.72;3.10;;;;;;;5.60;32.88;101916.19;5550625;32;34338;-57
2024/01/09 11:31:41;;;;;;;5.03;2.87;;;;;;;5.79;45.84;101927.75;5554601;32;34367;-57
2024/01/09 11:34:45;;;;;;;4.97;3.50;;;;;;;5.69;37.79;101934.56;5563094;32;33702;-57
2024/01/09 11:37:51;;;;;;;6.47;3.60;;;;;;;5.49;36.44;101926.62;5561175;32;33647;-57
2024/01/09 11:40:55;;;;;;;8.23;4.03;;;;;;;5.69;50.90;101924.72;5549655;32;33632;-57
2024/01/09 11:44:07;;;;;;;7.75;3.47;;;;;;;6.01;59.59;101922.19;5557803;32;33579;-57
2024/01/09 11:47:09;;;;;;;7.12;3.67;;;;;;;6.36;64.46;101919.97;5563199;32;33869;-57
2024/01/09 11:50:12;;;;;;;9.13;3.80;;;;;;;6.28;66.55;101918.34;5553669;32;34321;-57
2024/01/09 11:53:14;;;;;;;8.73;3.05;;;;;;;6.38;51.18;101911.75;5561426;32;33458;-56
2024/01/09 11:56:18;;;;;;;4.43;2.78;;;;;;;6.40;45.68;101913.19;5559228;32;34459;-58
2024/01/09 11:59:21;;;;;;;6.37;2.80;;;;;;;6.21;34.70;101916.78;5549435;32;33640;-57
2024/01/09 12:02:23;;;;;;;5.12;2.67;;;;;;;6.55;56.19;101919.00;5554487;32;33623;-58
2024/01/09 12:05:26;;;;;;;6.03;3.17;;;;;;;6.30;38.47;101916.31;5552178;32;33496;-57
2024/01/09 12:08:29;;;;;;;4.45;2.70;;;;;;;6.39;41.44;101916.88;5556401;32;33739;-57
2024/01/09 12:11:35;;;;;;;5.43;2.92;;;;;;;6.49;43.73;101914.56;5559085;32;32768;-57
2024/01/09 12:14:39;;;;;;;5.22;2.65;;;;;;;6.69;45.35;101919.75;5549893;32;33422;-57
2024/01/09 12:17:44;;;;;;;5.55;3.00;;;;;;;6.69;48.53;101919.75;5558358;32;33611;-57
2024/01/09 12:20:47;;;;;;;6.12;2.83;;;;;;;6.81;69.92;101922.53;5557935;32;33227;-57
2024/01/09 12:23:51;;;;;;;5.60;2.72;;;;;;;6.98;62.41;101925.44;5567296;32;33711;-57
2024/01/09 12:27:13;;;;;;;3.90;2.35;;;;;;;6.77;37.02;101926.66;5566442;32;33773;-60
2024/01/09 12:30:16;;;;;;;4.57;2.62;;;;;;;6.45;44.76;101923.19;5567619;32;33804;-60
2024/01/09 12:33:18;;;;;;;4.37;2.62;;;;;;;6.42;59.02;101929.75;5565864;32;34445;-60
2024/01/09 12:36:25;;;;;;;4.97;2.47;;;;;;;6.74;53.62;101940.41;5551352;32;33647;-60
2024/01/09 12:39:27;;;;;;;5.40;2.78;;;;;;;6.62;48.15;101934.13;5566345;32;33715;-60
2024/01/09 12:42:30;;;;;;;7.97;2.72;;;;;;;6.57;46.14;101940.12;5560538;32;35158;-60
2024/01/09 12:45:32;;;;;;;3.85;2.17;;;;;;;6.40;40.01;101937.16;5565336;32;33730;-60
2024/01/09 12:48:35;;;;;;;4.85;2.78;;;;;;;6.50;51.21;101939.34;5560895;32;33416;-60
2024/01/09 12:51:38;;;;;;;4.22;2.60;;;;;;;6.65;54.57;101942.50;5566530;32;33753;-60
2024/01/09 12:54:41;;;;;;;5.18;2.50;;;;;;;6.77;46.17;101947.97;5563050;32;33885;-59
2024/01/09 12:57:43;;;;;;;5.37;2.50;;;;;;;6.57;46.17;101945.44;5563875;32;34441;-58
2024/01/09 13:00:45;;;;;;;5.85;2.20;;;;;;;6.69;57.76;101943.75;5559030;32;33029;-60
2024/01/09 13:03:51;;;;;;;4.30;2.25;;;;;;;6.83;62.23;101947.94;5558925;32;34326;-59
2024/01/09 13:06:54;;;;;;;7.07;2.47;;;;;;;6.84;47.78;101946.06;5550396;32;33385;-60
2024/01/09 13:09:56;;;;;;;5.30;2.50;;;;;;;6.58;41.79;101947.06;5564350;32;32144;-60
2024/01/09 13:12:58;;;;;;;4.28;2.35;;;;;;;6.51;41.84;101955.09;5556640;32;33607;-59
2024/01/09 13:16:06;;;;;;;4.62;2.42;;;;;;;6.58;43.12;101963.88;5565344;32;34348;-60
2024/01/09 13:19:10;;;;;;;3.60;2.47;;;;;;;6.40;40.28;101953.13;5564241;32;33620;-60
2024/01/09 13:22:13;;;;;;;4.65;2.35;;;;;;;6.52;44.55;101963.91;5564643;32;33749;-60
2024/01/09 13:25:18;;;;;;;4.80;2.30;;;;;;;6.49;35.47;101962.53;5566358;32;35212;-59
2024/01/09 13:28:20;;;;;;;4.25;2.42;;;;;;;6.41;40.15;101961.94;5568690;32;33598;-59
2024/01/09 13:31:23;;;;;;;5.50;2.83;;;;;;;6.32;42.46;101962.22;5568450;32;34610;-60
2024/01/09 13:34:26;;;;;;;6.60;2.22;;;;;;;6.41;34.86;101961.94;5570146;32;33702;-57
2024/01/09 13:37:29;;;;;;;4.05;2.08;;;;;;;6.12;39.86;101958.78;5564650;32;33624;-57
2024/01/09 13:40:35;;;;;;;3.92;2.37;;;;;;;6.27;45.27;101969.19;5565138;32;32210;-57
2024/01/09 13:43:39;;;;;;;;;;;;;;;6.12;38.83;101980.09;5559174;32;33659;-57
2024/01/09 13:46:41;;;;;;;6.32;2.30;;;;;;;6.18;38.20;101970.44;5555163;31;33387;-57
2024/01/09 13:49:44;;;;;;;5.37;2.12;;;;;;;6.14;35.27;101974.56;5557116;32;33735;-57
2024/01/09 13:52:49;;;;;;;3.97;1.80;;;;;;;6.28;49.49;101978.81;5564216;32;33387;-57
2024/01/09 13:55:52;;;;;;;5.55;2.10;;;;;;;6.31;39.55;101979.19;5563518;32;34382;-57
2024/01/09 13:58:54;;;;;;;6.55;2.60;;;;;;;6.03;49.41;101984.84;5560660;32;33642;-57
2024/01/09 14:01:57;;;;;;;3.53;2.15;;;;;;;5.97;37.81;101982.22;5555062;32;33712;-57
2024/01/09 14:05:00;;;;;;;4.32;2.20;;;;;;;6.19;60.69;101988.06;5565777;32;35285;-57
2024/01/09 14:08:02;;;;;;;3.83;1.85;;;;;;;6.02;34.62;101987.72;5564203;32;33877;-57
2024/01/09 14:11:05;;;;;;;5.18;2.53;;;;;;;6.02;41.86;101991.19;5556251;32;33655;-57
2024/01/09 14:14:07;;;;;;;3.87;2.12;;;;;;;5.94;37.27;101982.63;5554162;32;34388;-58
2024/01/09 14:17:09;;;;;;;4.95;2.15;;;;;;;6.04;48.29;101989.16;5569153;32;33677;-57
2024/01/09 14:20:12;;;;;;;4.78;2.17;;;;;;;6.04;33.40;101989.16;5568720;32;33811;-57
2024/01/09 14:23:15;;;;;;;6.12;2.30;;;;;;;5.98;34.05;101997.97;5561578;32;33270;-57
2024/01/09 14:26:20;;;;;;;9.52;2.30;;;;;;;6.23;42.86;102002.59;5567652;32;33705;-57
2024/01/09 14:29:27;;;;;;;6.65;2.12;;;;;;;6.30;41.14;102006.06;5560605;32;33243;-57
2024/01/09 14:32:29;;;;;;;12.43;3.17;;;;;;;6.09;45.06;102007.97;5561476;32;33482;-57
2024/01/09 14:35:32;;;;;;;6.60;2.33;;;;;;;5.99;36.96;102006.75;5558867;32;33171;-57
2024/01/09 14:38:34;;;;;;;6.10;2.55;;;;;;;6.04;40.13;102010.44;5560915;32;34280;-56
2024/01/09 14:41:37;;;;;;;14.93;2.47;;;;;;;6.29;48.21;102018.56;5551440;32;33606;-56
2024/01/09 14:44:39;;;;;;;4.55;2.15;;;;;;;6.35;35.63;102020.34;5563192;32;33937;-60
2024/01/09 14:47:42;;;;;;;8.88;3.12;;;;;;;6.29;49.82;102020.37;5564715;32;34406;-60
2024/01/09 14:50:45;;;;;;;7.05;3.00;;;;;;;6.38;48.81;102018.31;5568659;32;33640;-60
2024/01/09 14:53:47;;;;;;;6.65;2.75;;;;;;;6.26;47.47;102018.16;5561493;31;34752;-60
2024/01/09 14:56:50;;;;;;;17.52;3.10;;;;;;;6.26;54.43;102015.50;5557311;32;33892;-59
2024/01/09 14:59:52;;;;;;;10.57;2.90;;;;;;;6.10;38.23;102016.78;5552171;32;33585;-59
2024/01/09 15:02:56;;;;;;;7.80;3.35;;;;;;;5.78;41.61;102029.91;5564940;32;33668;-58
2024/01/09 15:05:59;;;;;;;7.75;3.05;;;;;;;5.51;34.03;102023.81;5565761;32;33728;-60
2024/01/09 15:09:01;;;;;;;7.05;3.35;;;;;;;5.44;41.51;102033.66;5569394;32;33882;-58
2024/01/09 15:12:04;;;;;;;18.70;4.32;;;;;;;5.52;39.22;102040.59;5557793;32;34394;-57
2024/01/09 15:15:07;;;;;;;12.05;3.92;;;;;;;5.72;46.83;102048.56;5550027;32;33975;-57
2024/01/09 15:18:09;;;;;;;9.23;4.18;;;;;;;5.63;42.00;102047.97;5548906;32;33666;-58
2024/01/09 15:21:12;;;;;;;9.20;4.47;;;;;;;5.54;47.91;102047.34;5567953;32;34405;-58
2024/01/09 15:24:15;;;;;;;10.63;4.65;;;;;;;5.53;50.00;102047.53;5569032;32;34340;-57
2024/01/09 15:27:17;;;;;;;10.70;4.70;;;;;;;5.22;39.77;102051.63;5568457;32;33783;-58
2024/01/09 15:30:20;;;;;;;10.40;4.18;;;;;;;5.02;41.12;102048.97;5568401;32;34759;-57
2024/01/09 15:33:22;;;;;;;9.13;4.12;;;;;;;4.91;37.21;102046.91;5552207;32;33726;-59
2024/01/09 15:36:25;;;;;;;11.77;5.05;;;;;;;4.91;44.85;102055.69;5549634;32;33630;-58
2024/01/09 15:39:29;;;;;;;12.57;4.43;;;;;;;5.13;41.01;102058.16;5553313;32;33413;-58
2024/01/09 15:42:31;;;;;;;7.32;3.97;;;;;;;5.14;46.85;102067.81;5568906;32;34335;-57
2024/01/09 15:45:34;;;;;;;7.18;3.42;;;;;;;5.24;45.64;102073.53;5567718;32;33863;-58
2024/01/09 15:48:36;;;;;;;7.35;3.60;;;;;;;5.08;39.58;102069.41;5568954;32;34320;-58
2024/01/09 15:51:39;;;;;;;9.63;3.58;;;;;;;5.46;51.53;102078.66;5568397;32;33620;-58
2024/01/09 15:54:41;;;;;;;6.55;3.42;;;;;;;5.54;41.91;102079.28;5568653;32;33214;-55
2024/01/09 15:57:44;;;;;;;9.18;3.67;;;;;;;5.25;59.22;102072.50;5558790;32;34275;-55
2024/01/09 16:00:46;;;;;;;8.45;3.95;;;;;;;4.88;37.06;102081.84;5563697;32;32312;-55
2024/01/09 16:03:50;;;;;;;10.65;3.50;;;;;;;4.90;38.18;102079.78;5567235;32;34353;-55
2024/01/09 16:06:52;;;;;;;7.65;3.90;;;;;;;4.85;45.83;102082.25;5557326;32;34271;-55
2024/01/09 16:09:55;;;;;;;12.13;3.83;;;;;;;4.78;38.64;102084.06;5559552;32;33690;-55
2024/01/09 16:12:58;;;;;;;6.87;3.72;;;;;;;4.79;39.32;102083.03;5569059;32;33599;-55
2024/01/09 16:16:03;;;;;;;13.30;4.30;;;;;;;5.00;51.18;102088.22;5568318;32;33710;-55
2024/01/09 16:19:05;;;;;;;8.45;3.53;;;;;;;5.00;45.83;102087.37;5568301;32;34462;-55
2024/01/09 16:22:10;;;;;;;6.78;3.70;;;;;;;4.72;55.59;102088.34;5568972;32;33615;-55
2024/01/09 16:25:13;;;;;;;6.87;3.45;;;;;;;5.03;60.32;102089.62;5568007;32;33715;-55
2024/01/09 16:28:16;;;;;;;7.37;3.67;;;;;;;4.89;61.94;102099.44;5566638;32;34384;-55
2024/01/09 16:31:18;;;;;;;6.22;3.80;;;;;;;4.59;37.69;102099.72;5566106;32;34273;-55
2024/01/09 16:34:21;;;;;;;8.18;4.00;;;;;;;4.55;37.66;102095.84;5568785;32;34370;-55
2024/01/09 16:37:24;;;;;;;8.20;4.10;;;;;;;4.37;39.56;102100.84;5568736;32;34269;-55
